Time;durP1;ratioP1;P1;durP2;ratioP2;P2;SDS_P1;SDS_P2;PMS_P1;PMS_P2;Temp;Humidity;BMP_temperature;BMP_pressure;BME280_temperature;BME280_humidity;BME280_pressure;Samples;Min_cycle;Max_cycle;Signal;HPM_P1;HPM_P2
2021/12/03 00:00:52;;;;;;;16.52;5.05;;;2.60;81.60;;;;;;4915599;29;20653;-91
2021/12/03 00:03:20;;;;;;;21.65;5.82;;;2.60;81.60;;;;;;4918394;29;20628;-92
2021/12/03 00:05:48;;;;;;;22.70;5.68;;;2.60;81.60;;;;;;4918289;29;20068;-92
2021/12/03 00:08:18;;;;;;;24.88;5.57;;;2.60;81.50;;;;;;4918371;29;20044;-92
2021/12/03 00:10:53;;;;;;;23.23;5.75;;;2.60;81.60;;;;;;4918313;29;20052;-92
2021/12/03 00:13:21;;;;;;;22.05;5.72;;;2.50;81.50;;;;;;4918792;29;20382;-92
2021/12/03 00:15:49;;;;;;;18.27;5.35;;;2.50;81.50;;;;;;4899100;29;20074;-92
2021/12/03 00:18:16;;;;;;;17.90;6.40;;;2.50;81.50;;;;;;4913677;29;20044;-92
2021/12/03 00:20:44;;;;;;;24.05;5.20;;;2.50;81.50;;;;;;4917309;29;20071;-92
2021/12/03 00:23:13;;;;;;;20.90;5.72;;;2.50;81.50;;;;;;4918433;29;20402;-91
2021/12/03 00:25:40;;;;;;;18.40;5.88;;;2.50;81.50;;;;;;4918166;29;20060;-92
2021/12/03 00:28:07;;;;;;;15.27;5.32;;;2.50;81.50;;;;;;4918062;29;20048;-91
2021/12/03 00:30:35;;;;;;;19.90;5.43;;;2.50;81.50;;;;;;4916626;29;20108;-91
2021/12/03 00:33:03;;;;;;;15.23;5.35;;;2.50;81.60;;;;;;4918010;29;20052;-91
2021/12/03 00:35:30;;;;;;;21.13;5.80;;;2.50;81.50;;;;;;4916895;29;20565;-91
2021/12/03 00:37:58;;;;;;;19.45;6.32;;;2.40;81.50;;;;;;4918003;29;20526;-92
2021/12/03 00:40:30;;;;;;;16.65;5.97;;;2.40;81.50;;;;;;4917746;29;20088;-93
2021/12/03 00:42:58;;;;;;;19.55;5.20;;;2.40;81.60;;;;;;4917932;29;20055;-91
2021/12/03 00:45:25;;;;;;;17.80;6.00;;;2.40;81.50;;;;;;4917593;29;20071;-91
2021/12/03 00:47:52;;;;;;;19.75;5.78;;;2.40;81.60;;;;;;4909526;29;20048;-92
2021/12/03 00:50:22;;;;;;;19.38;6.30;;;2.40;81.60;;;;;;4916609;29;20501;-92
2021/12/03 00:52:51;;;;;;;21.40;5.85;;;2.40;81.60;;;;;;4917530;29;22976;-91
2021/12/03 00:55:20;;;;;;;17.17;5.43;;;2.40;81.60;;;;;;4918016;29;20093;-93
2021/12/03 00:57:47;;;;;;;13.98;4.90;;;2.40;81.60;;;;;;4917696;29;20111;-91
2021/12/03 01:00:24;;;;;;;17.58;5.63;;;2.40;81.60;;;;;;4916744;29;20055;-92
2021/12/03 01:02:55;;;;;;;20.70;6.43;;;2.30;81.60;;;;;;4917534;29;20052;-92
2021/12/03 01:05:22;;;;;;;19.65;6.90;;;2.40;81.60;;;;;;4917942;29;20420;-94
2021/12/03 01:07:50;;;;;;;17.90;6.20;;;2.40;81.60;;;;;;4915818;29;20048;-92
2021/12/03 01:10:18;;;;;;;16.20;5.80;;;2.30;81.60;;;;;;4917945;29;20224;-92
2021/12/03 01:12:45;;;;;;;19.63;5.95;;;2.30;81.60;;;;;;4918222;29;20140;-92
2021/12/03 01:15:16;;;;;;;18.25;6.63;;;2.30;81.60;;;;;;4917926;29;20529;-92
2021/12/03 01:17:43;;;;;;;18.55;5.72;;;2.30;81.60;;;;;;4918150;29;20064;-93
2021/12/03 01:20:13;;;;;;;21.17;6.07;;;2.30;81.60;;;;;;4917871;29;20056;-94
2021/12/03 01:22:41;;;;;;;20.58;6.90;;;2.30;81.60;;;;;;4918881;29;20056;-93
2021/12/03 01:25:10;;;;;;;20.20;7.43;;;2.30;81.60;;;;;;4917762;29;20052;-93
2021/12/03 01:27:37;;;;;;;21.00;8.00;;;2.30;81.60;;;;;;4918607;29;20063;-93
2021/12/03 01:30:07;;;;;;;28.55;8.43;;;2.30;81.60;;;;;;4918750;29;20052;-95
2021/12/03 01:32:34;;;;;;;22.00;8.57;;;2.30;81.60;;;;;;4918221;29;20054;-93
2021/12/03 01:35:02;;;;;;;21.23;7.85;;;2.30;81.60;;;;;;4919601;29;20052;-93
2021/12/03 01:37:29;;;;;;;20.83;7.85;;;2.30;81.60;;;;;;4919632;29;20474;-93
2021/12/03 01:39:56;;;;;;;20.92;6.85;;;2.30;81.60;;;;;;4901150;29;20052;-93
2021/12/03 01:42:23;;;;;;;22.30;7.20;;;2.20;81.60;;;;;;4912539;29;20128;-94
2021/12/03 01:44:50;;;;;;;23.98;6.82;;;2.30;81.60;;;;;;4920894;29;20059;-94
2021/12/03 01:47:17;;;;;;;25.85;7.45;;;2.20;81.60;;;;;;4920986;29;20051;-93
2021/12/03 01:49:44;;;;;;;22.08;7.65;;;2.20;81.60;;;;;;4921956;29;20052;-94
2021/12/03 01:52:11;;;;;;;21.88;7.38;;;2.20;81.60;;;;;;4922456;29;20056;-94
2021/12/03 01:54:38;;;;;;;18.25;6.25;;;2.20;81.60;;;;;;4925528;29;20059;-94
2021/12/03 01:57:05;;;;;;;16.00;5.68;;;2.20;81.60;;;;;;4929065;29;20055;-95
2021/12/03 01:59:33;;;;;;;15.88;6.50;;;2.20;81.60;;;;;;4930769;29;20433;-93
2021/12/03 02:02:00;;;;;;;15.70;5.88;;;2.20;81.60;;;;;;4933800;29;20081;-96
2021/12/03 02:04:28;;;;;;;22.25;6.30;;;2.20;81.70;;;;;;4935075;29;20059;-94
2021/12/03 02:06:55;;;;;;;17.27;6.50;;;2.20;81.70;;;;;;4936295;29;20493;-94
2021/12/03 02:09:22;;;;;;;18.38;6.68;;;2.20;81.70;;;;;;4936077;29;20055;-95
2021/12/03 02:11:49;;;;;;;14.57;5.82;;;2.20;81.70;;;;;;4932354;29;20500;-94
2021/12/03 02:14:16;;;;;;;17.23;6.50;;;2.20;81.70;;;;;;4929193;29;20056;-95
2021/12/03 02:16:45;;;;;;;22.00;7.43;;;2.20;81.70;;;;;;4930108;29;20056;-94
2021/12/03 02:19:13;;;;;;;25.20;6.90;;;2.20;81.70;;;;;;4929802;29;20112;-94
2021/12/03 02:21:41;;;;;;;19.70;6.63;;;2.20;81.70;;;;;;4930536;29;20056;-94
2021/12/03 02:24:08;;;;;;;20.13;6.95;;;2.20;81.70;;;;;;4930135;29;20071;-92
2021/12/03 02:26:34;;;;;;;20.10;6.55;;;2.20;81.70;;;;;;4929571;29;20056;-94
2021/12/03 02:29:03;;;;;;;19.05;5.95;;;2.20;81.70;;;;;;4929647;29;20056;-94
2021/12/03 02:31:30;;;;;;;17.27;6.13;;;2.20;81.70;;;;;;4928540;29;20052;-94
2021/12/03 02:33:57;;;;;;;17.88;5.68;;;2.20;81.80;;;;;;4928443;29;20068;-94
2021/12/03 02:36:24;;;;;;;23.70;6.90;;;2.20;81.80;;;;;;4929454;29;20067;-94
2021/12/03 02:38:51;;;;;;;19.77;6.18;;;2.20;81.80;;;;;;4930751;29;20048;-94
2021/12/03 02:41:19;;;;;;;16.63;6.00;;;2.20;81.80;;;;;;4930660;29;20059;-93
2021/12/03 02:43:46;;;;;;;17.80;6.20;;;2.30;81.90;;;;;;4929954;29;20048;-94
2021/12/03 02:46:13;;;;;;;25.63;6.68;;;2.20;81.90;;;;;;4928614;29;20112;-95
2021/12/03 02:48:40;;;;;;;16.88;6.28;;;2.30;81.90;;;;;;4927869;29;20059;-95
2021/12/03 02:51:08;;;;;;;20.25;5.72;;;2.30;81.90;;;;;;4927789;29;21073;-93
2021/12/03 02:53:36;;;;;;;20.05;5.82;;;2.30;81.90;;;;;;4927547;29;20438;-93
2021/12/03 02:56:05;;;;;;;18.98;5.60;;;2.30;81.90;;;;;;4926372;29;20067;-94
2021/12/03 02:58:32;;;;;;;20.30;5.90;;;2.30;81.90;;;;;;4926566;29;20103;-94
2021/12/03 03:01:01;;;;;;;24.20;6.70;;;2.30;81.90;;;;;;4926457;29;20572;-95
2021/12/03 03:03:30;;;;;;;20.67;5.72;;;2.30;82.00;;;;;;4925962;29;20484;-94
2021/12/03 03:06:00;;;;;;;14.25;4.88;;;2.30;82.00;;;;;;4929412;29;20056;-94
2021/12/03 03:08:28;;;;;;;18.83;5.85;;;2.30;82.00;;;;;;4930518;29;20060;-95
2021/12/03 03:10:56;;;;;;;15.82;5.15;;;2.30;82.00;;;;;;4925592;29;20540;-94
2021/12/03 03:13:24;;;;;;;19.52;5.43;;;2.30;82.00;;;;;;4913002;29;20048;-95
2021/12/03 03:15:52;;;;;;;14.82;5.07;;;2.40;82.10;;;;;;4910460;29;20057;-95
2021/12/03 03:18:23;;;;;;;17.92;5.97;;;2.30;82.10;;;;;;4909332;29;20052;-95
2021/12/03 03:20:53;;;;;;;20.35;6.13;;;2.30;82.10;;;;;;4908715;29;20044;-93
2021/12/03 03:23:21;;;;;;;14.25;5.07;;;2.30;82.10;;;;;;4907273;29;20068;-94
2021/12/03 03:25:49;;;;;;;14.90;5.15;;;2.30;82.10;;;;;;4907514;29;20048;-94
2021/12/03 03:28:20;;;;;;;18.20;5.18;;;2.30;82.10;;;;;;4923844;29;20052;-94
2021/12/03 03:30:51;;;;;;;19.42;4.95;;;2.40;82.20;;;;;;4903675;29;20053;-93
2021/12/03 03:33:18;;;;;;;12.05;5.07;;;2.30;82.20;;;;;;4903159;29;20052;-93
2021/12/03 03:35:45;;;;;;;17.40;5.22;;;2.40;82.20;;;;;;4903266;29;20052;-93
2021/12/03 03:38:13;;;;;;;16.50;5.10;;;2.40;82.30;;;;;;4903162;29;20053;-93
2021/12/03 03:40:42;;;;;;;16.85;4.72;;;2.40;82.30;;;;;;4905342;29;20494;-94
2021/12/03 03:43:10;;;;;;;13.90;5.03;;;2.40;82.30;;;;;;4922232;29;20429;-95
2021/12/03 03:45:40;;;;;;;21.40;5.22;;;2.40;82.30;;;;;;4920673;29;20079;-94
2021/12/03 03:48:07;;;;;;;15.15;5.45;;;2.40;82.30;;;;;;4921596;29;20501;-94
2021/12/03 03:50:34;;;;;;;18.15;5.40;;;2.40;82.30;;;;;;4921591;29;20055;-94
2021/12/03 03:53:01;;;;;;;13.18;5.20;;;2.40;82.40;;;;;;4921022;29;20060;-95
2021/12/03 03:55:30;;;;;;;22.85;6.38;;;2.40;82.40;;;;;;4920330;29;20493;-94
2021/12/03 03:58:00;;;;;;;13.27;5.15;;;2.40;82.40;;;;;;4920559;29;20086;-94
2021/12/03 04:00:32;;;;;;;14.27;4.75;;;2.40;82.40;;;;;;4920826;29;20056;-93
2021/12/03 04:02:59;;;;;;;18.00;5.00;;;2.40;82.40;;;;;;4920524;29;20060;-94
2021/12/03 04:05:26;;;;;;;16.60;5.60;;;2.40;82.40;;;;;;4920671;29;20052;-93
2021/12/03 04:07:54;;;;;;;21.20;5.57;;;2.40;82.50;;;;;;4920062;29;20047;-95
2021/12/03 04:10:21;;;;;;;14.88;4.88;;;2.40;82.50;;;;;;4920825;29;20524;-94
2021/12/03 04:12:48;;;;;;;15.48;4.63;;;2.40;82.50;;;;;;4919582;29;20055;-94
2021/12/03 04:15:15;;;;;;;17.85;5.50;;;2.40;82.50;;;;;;4920133;29;20107;-93
2021/12/03 04:17:42;;;;;;;17.08;5.20;;;2.40;82.50;;;;;;4919675;29;20292;-93
2021/12/03 04:20:13;;;;;;;16.33;5.28;;;2.40;82.50;;;;;;4920055;29;20052;-94
2021/12/03 04:22:41;;;;;;;16.17;4.90;;;2.40;82.50;;;;;;4920096;29;20053;-93
2021/12/03 04:25:11;;;;;;;14.35;5.20;;;2.40;82.50;;;;;;4919953;29;20466;-94
2021/12/03 04:27:38;;;;;;;20.63;5.53;;;2.40;82.50;;;;;;4919835;29;20048;-94
2021/12/03 04:30:08;;;;;;;20.65;4.97;;;2.40;82.60;;;;;;4919269;29;20111;-94
2021/12/03 04:32:35;;;;;;;22.98;5.45;;;2.40;82.60;;;;;;4919299;29;20048;-95
2021/12/03 04:35:03;;;;;;;18.85;5.22;;;2.40;82.60;;;;;;4919622;29;20044;-94
2021/12/03 04:37:30;;;;;;;13.48;5.45;;;2.40;82.60;;;;;;4918215;29;20396;-93
2021/12/03 04:39:56;;;;;;;16.10;5.20;;;2.40;82.60;;;;;;4919133;29;20446;-93
2021/12/03 04:42:23;;;;;;;16.75;5.25;;;2.40;82.70;;;;;;4919223;29;20051;-94
2021/12/03 04:44:50;;;;;;;13.98;5.38;;;2.40;82.70;;;;;;4918651;29;20070;-93
2021/12/03 04:47:18;;;;;;;17.73;4.68;;;2.40;82.70;;;;;;4918103;29;20055;-92
2021/12/03 04:49:44;;;;;;;13.25;4.93;;;2.40;82.70;;;;;;4918816;29;20501;-93
2021/12/03 04:52:11;;;;;;;13.88;4.88;;;2.40;82.80;;;;;;4918956;29;20052;-93
2021/12/03 04:54:38;;;;;;;16.08;5.43;;;2.40;82.80;;;;;;4917236;29;20111;-93
2021/12/03 04:57:06;;;;;;;15.52;5.03;;;2.40;82.70;;;;;;4919677;29;20111;-93
2021/12/03 04:59:33;;;;;;;15.13;4.82;;;2.50;82.80;;;;;;4917926;29;20052;-92
2021/12/03 05:02:00;;;;;;;12.40;4.63;;;2.50;82.80;;;;;;4918218;29;20107;-92
2021/12/03 05:04:35;;;;;;;12.23;4.50;;;2.50;82.80;;;;;;4918404;29;20107;-91
2021/12/03 05:07:05;;;;;;;14.90;5.30;;;2.50;82.80;;;;;;4911084;29;20052;-93
2021/12/03 05:09:32;;;;;;;13.43;4.60;;;2.50;82.80;;;;;;4917663;29;20044;-92
2021/12/03 05:12:00;;;;;;;16.42;4.40;;;2.50;82.80;;;;;;4917727;29;20052;-92
2021/12/03 05:14:28;;;;;;;13.30;4.28;;;2.50;82.90;;;;;;4918467;29;20052;-93
2021/12/03 05:16:56;;;;;;;16.25;4.85;;;2.50;82.90;;;;;;4917998;29;20056;-92
2021/12/03 05:19:23;;;;;;;14.50;5.45;;;2.50;82.90;;;;;;4917185;29;20052;-91
2021/12/03 05:21:50;;;;;;;15.60;4.85;;;2.50;82.90;;;;;;4917509;29;20081;-93
2021/12/03 05:24:18;;;;;;;22.17;5.38;;;2.50;82.90;;;;;;4917231;29;20493;-93
2021/12/03 05:26:45;;;;;;;15.63;5.10;;;2.50;82.90;;;;;;4916036;29;20458;-91
2021/12/03 05:29:14;;;;;;;15.57;5.22;;;2.50;82.90;;;;;;4916750;29;20059;-91
2021/12/03 05:31:41;;;;;;;12.27;4.80;;;2.50;83.00;;;;;;4917246;29;20056;-92
2021/12/03 05:34:28;;;;;;;14.13;4.57;;;2.50;83.00;;;;;;4915953;29;20056;-91
2021/12/03 05:36:55;;;;;;;13.50;4.97;;;2.50;83.00;;;;;;4898228;29;20056;-91
2021/12/03 05:39:23;;;;;;;14.82;5.38;;;2.50;83.00;;;;;;4909260;29;20068;-92
2021/12/03 05:41:50;;;;;;;21.10;5.32;;;2.50;83.00;;;;;;4898709;29;20100;-91
2021/12/03 05:44:17;;;;;;;17.27;5.10;;;2.50;83.00;;;;;;4898274;29;20459;-93
2021/12/03 05:46:44;;;;;;;12.77;4.40;;;2.50;83.00;;;;;;4898352;29;20060;-91
2021/12/03 05:49:12;;;;;;;10.20;4.60;;;2.50;83.00;;;;;;4911881;29;20131;-91
2021/12/03 05:51:39;;;;;;;16.15;4.80;;;2.50;83.00;;;;;;4917002;29;20048;-92
2021/12/03 05:54:06;;;;;;;13.73;4.72;;;2.50;83.00;;;;;;4916902;29;20052;-91
2021/12/03 05:56:36;;;;;;;12.70;5.03;;;2.50;83.00;;;;;;4916948;29;20056;-93
2021/12/03 05:59:03;;;;;;;15.57;5.13;;;2.50;83.10;;;;;;4917278;29;20052;-93
2021/12/03 06:01:30;;;;;;;16.58;5.18;;;2.60;83.10;;;;;;4917155;29;20501;-92
2021/12/03 06:03:57;;;;;;;11.75;4.65;;;2.50;83.10;;;;;;4916703;29;20154;-90
2021/12/03 06:06:25;;;;;;;11.63;4.47;;;2.60;83.10;;;;;;4914943;29;20104;-92
2021/12/03 06:08:52;;;;;;;12.50;4.63;;;2.60;83.10;;;;;;4916750;29;20145;-92
2021/12/03 06:11:25;;;;;;;16.42;5.38;;;2.60;83.10;;;;;;4917281;29;20536;-92
2021/12/03 06:13:54;;;;;;;18.20;5.63;;;2.60;83.20;;;;;;4917612;29;20056;-93
2021/12/03 06:16:21;;;;;;;17.50;5.32;;;2.60;83.20;;;;;;4916468;29;20056;-94
2021/12/03 06:18:50;;;;;;;18.25;5.20;;;2.60;83.20;;;;;;4914283;29;20104;-92
2021/12/03 06:21:17;;;;;;;12.25;6.07;;;2.60;83.20;;;;;;4914705;29;20060;-92
2021/12/03 06:23:45;;;;;;;16.52;5.68;;;2.60;83.20;;;;;;4914809;29;20055;-92
2021/12/03 06:26:12;;;;;;;17.35;5.47;;;2.60;83.20;;;;;;4914846;29;20063;-92
2021/12/03 06:28:41;;;;;;;15.02;5.22;;;2.60;83.30;;;;;;4915005;29;20479;-92
2021/12/03 06:31:08;;;;;;;15.35;5.10;;;2.60;83.30;;;;;;4915219;29;20088;-92
2021/12/03 06:33:35;;;;;;;18.70;6.35;;;2.60;83.30;;;;;;4913460;29;20159;-94
2021/12/03 06:36:06;;;;;;;14.77;5.88;;;2.60;83.30;;;;;;4914808;29;20486;-92
2021/12/03 06:38:33;;;;;;;19.02;5.97;;;2.60;83.30;;;;;;4914813;29;20055;-94
2021/12/03 06:41:00;;;;;;;16.10;6.00;;;2.70;83.30;;;;;;4917033;29;20059;-91
2021/12/03 06:43:28;;;;;;;14.05;5.68;;;2.60;83.30;;;;;;4918443;29;20056;-92
2021/12/03 06:45:55;;;;;;;19.35;6.03;;;2.70;83.30;;;;;;4916473;29;20051;-94
2021/12/03 06:48:22;;;;;;;15.82;6.10;;;2.60;83.30;;;;;;4916936;29;20068;-93
2021/12/03 06:50:51;;;;;;;16.20;6.68;;;2.70;83.40;;;;;;4918325;29;20402;-93
2021/12/03 06:53:22;;;;;;;14.02;5.60;;;2.70;83.40;;;;;;4917925;29;20374;-93
2021/12/03 06:55:54;;;;;;;14.73;6.88;;;2.70;83.40;;;;;;4918831;29;20056;-94
2021/12/03 06:58:21;;;;;;;16.83;6.28;;;2.70;83.40;;;;;;4916890;29;20052;-94
2021/12/03 07:00:51;;;;;;;17.55;6.90;;;2.70;83.40;;;;;;4918779;29;20099;-93
2021/12/03 07:03:19;;;;;;;21.98;6.40;;;2.70;83.40;;;;;;4918448;29;20077;-93
2021/12/03 07:05:47;;;;;;;18.63;6.72;;;2.70;83.40;;;;;;4917534;29;20077;-94
2021/12/03 07:08:15;;;;;;;17.48;6.15;;;2.70;83.50;;;;;;4919065;29;20127;-93
2021/12/03 07:10:42;;;;;;;13.68;5.85;;;2.70;83.40;;;;;;4918724;29;20048;-93
2021/12/03 07:13:09;;;;;;;17.38;6.05;;;2.70;83.50;;;;;;4920302;29;20052;-94
2021/12/03 07:15:36;;;;;;;19.40;6.45;;;2.70;83.50;;;;;;4918471;29;20464;-93
2021/12/03 07:18:04;;;;;;;15.43;5.93;;;2.70;83.50;;;;;;4918394;29;20055;-93
2021/12/03 07:20:31;;;;;;;13.57;5.82;;;2.70;83.50;;;;;;4918238;29;20048;-93
2021/12/03 07:22:58;;;;;;;12.45;6.15;;;2.70;83.50;;;;;;4918705;29;20058;-93
2021/12/03 07:25:25;;;;;;;16.20;5.65;;;2.70;83.50;;;;;;4919093;29;20056;-93
2021/12/03 07:27:52;;;;;;;20.90;6.72;;;2.70;83.50;;;;;;4916330;29;20063;-93
2021/12/03 07:30:21;;;;;;;16.27;6.22;;;2.70;83.50;;;;;;4919971;29;20060;-94
2021/12/03 07:32:48;;;;;;;14.85;5.95;;;2.70;83.50;;;;;;4918137;29;20536;-93
2021/12/03 07:35:16;;;;;;;15.52;6.10;;;2.70;83.50;;;;;;4918362;29;20421;-94
2021/12/03 07:37:43;;;;;;;17.77;6.05;;;2.70;83.50;;;;;;4919198;29;20107;-93
2021/12/03 07:40:12;;;;;;;17.33;5.70;;;2.70;83.50;;;;;;4919911;29;20199;-93
2021/12/03 07:42:39;;;;;;;12.43;5.78;;;2.70;83.50;;;;;;4920691;29;20059;-94
2021/12/03 07:45:08;;;;;;;12.68;6.00;;;2.70;83.50;;;;;;4918111;29;20060;-93
2021/12/03 07:47:36;;;;;;;13.73;6.15;;;2.70;83.50;;;;;;4919897;29;20052;-93
2021/12/03 07:50:08;;;;;;;16.88;5.97;;;2.70;83.50;;;;;;4918877;29;20054;-93
2021/12/03 07:52:35;;;;;;;14.40;6.63;;;2.70;83.50;;;;;;4920440;29;20528;-93
2021/12/03 07:55:04;;;;;;;15.38;6.38;;;2.70;83.50;;;;;;4919810;29;20052;-93
2021/12/03 07:57:32;;;;;;;14.82;5.85;;;2.70;83.50;;;;;;4918745;29;20425;-92
2021/12/03 07:59:59;;;;;;;13.38;5.90;;;2.70;83.50;;;;;;4918069;29;20052;-93
2021/12/03 08:02:26;;;;;;;22.92;6.97;;;2.70;83.50;;;;;;4917884;29;20248;-93
2021/12/03 08:04:54;;;;;;;16.73;6.50;;;2.70;83.60;;;;;;4917349;29;20059;-93
2021/12/03 08:07:22;;;;;;;13.18;6.53;;;2.70;83.60;;;;;;4917678;29;20058;-94
2021/12/03 08:09:49;;;;;;;19.95;6.65;;;2.80;83.60;;;;;;4917160;29;20075;-92
2021/12/03 08:12:16;;;;;;;17.77;6.22;;;2.70;83.60;;;;;;4917195;29;20064;-92
2021/12/03 08:14:43;;;;;;;16.50;6.82;;;2.70;83.60;;;;;;4917391;29;20107;-92
2021/12/03 08:17:10;;;;;;;13.73;6.50;;;2.80;83.60;;;;;;4916824;29;20505;-92
2021/12/03 08:19:37;;;;;;;16.83;6.78;;;2.70;83.60;;;;;;4916975;29;20146;-92
2021/12/03 08:22:04;;;;;;;21.80;7.15;;;2.80;83.70;;;;;;4915456;29;20051;-93
2021/12/03 08:24:31;;;;;;;13.88;6.57;;;2.80;83.70;;;;;;4916330;29;20186;-91
2021/12/03 08:27:00;;;;;;;18.38;7.53;;;2.80;83.70;;;;;;4917003;29;20063;-91
2021/12/03 08:29:31;;;;;;;17.45;7.45;;;2.80;83.70;;;;;;4917310;29;20136;-92
2021/12/03 08:31:59;;;;;;;16.23;6.63;;;2.80;83.70;;;;;;4917307;29;20107;-92
2021/12/03 08:34:26;;;;;;;14.30;7.40;;;2.80;83.80;;;;;;4917284;29;20056;-92
2021/12/03 08:36:53;;;;;;;17.05;7.55;;;2.80;83.80;;;;;;4916687;29;20095;-92
2021/12/03 08:39:24;;;;;;;12.52;7.28;;;2.90;83.80;;;;;;4915317;29;20056;-91
2021/12/03 08:41:51;;;;;;;16.05;7.25;;;2.80;83.80;;;;;;4916974;29;20457;-92
2021/12/03 08:44:18;;;;;;;17.20;7.80;;;2.80;83.80;;;;;;4916788;29;20055;-92
2021/12/03 08:46:47;;;;;;;10.20;6.70;;;2.80;83.80;;;;;;4915025;29;20056;-90
2021/12/03 08:49:28;;;;;;;17.40;7.53;;;2.90;83.80;;;;;;4917653;29;20062;-93
2021/12/03 08:54:51;;;;;;;16.67;7.63;;;2.90;83.90;;;;;;4916139;29;20074;-91
2021/12/03 08:57:25;;;;;;;17.08;7.20;;;2.90;83.90;;;;;;4916293;29;20107;-93
2021/12/03 08:59:56;;;;;;;;;;;2.90;83.90;;;;;;4916739;29;20056;-92
2021/12/03 09:02:23;;;;;;;14.65;7.68;;;2.90;83.90;;;;;;4916715;29;20304;-91
2021/12/03 09:04:50;;;;;;;21.63;8.27;;;2.90;83.90;;;;;;4916334;29;20107;-91
2021/12/03 09:07:18;;;;;;;17.13;7.68;;;2.90;83.90;;;;;;4917354;29;20048;-92
2021/12/03 09:09:45;;;;;;;16.77;7.95;;;2.90;83.90;;;;;;4915329;29;20062;-94
2021/12/03 09:12:13;;;;;;;17.40;7.43;;;2.90;83.90;;;;;;4915962;29;20052;-91
2021/12/03 09:14:48;;;;;;;16.40;7.68;;;2.90;84.00;;;;;;4915532;29;20060;-91
2021/12/03 09:17:32;;;;;;;18.75;7.82;;;2.90;84.00;;;;;;4916001;29;20045;-91
2021/12/03 09:20:07;;;;;;;15.37;7.93;;;3.00;84.00;;;;;;4902681;29;20075;-93
2021/12/03 09:25:03;;;;;;;18.73;7.90;;;3.00;84.00;;;;;;4916903;29;20052;-92
2021/12/03 09:27:30;;;;;;;16.05;7.13;;;3.00;84.00;;;;;;4914531;29;20062;-93
2021/12/03 09:29:58;;;;;;;18.65;7.82;;;3.00;84.00;;;;;;4916388;29;20048;-92
2021/12/03 09:32:30;;;;;;;18.05;8.15;;;3.00;84.00;;;;;;4916917;29;20080;-92
2021/12/03 09:34:58;;;;;;;14.98;7.30;;;3.00;84.10;;;;;;4916750;29;20056;-92
2021/12/03 09:37:26;;;;;;;17.23;8.52;;;3.10;84.00;;;;;;4916538;29;20060;-92
2021/12/03 09:39:55;;;;;;;16.60;8.43;;;3.10;84.10;;;;;;4916401;29;20048;-93
2021/12/03 09:42:22;;;;;;;17.80;8.30;;;3.10;84.10;;;;;;4915226;29;20056;-92
2021/12/03 09:44:51;;;;;;;21.00;7.60;;;3.10;84.10;;;;;;4916790;29;20059;-93
2021/12/03 09:47:19;;;;;;;14.73;7.30;;;3.10;84.10;;;;;;4916914;29;20044;-92
2021/12/03 09:49:54;;;;;;;19.13;7.03;;;3.20;84.10;;;;;;4917922;29;20091;-92
2021/12/03 09:52:34;;;;;;;18.67;7.57;;;3.20;84.10;;;;;;4918871;29;20056;-93
2021/12/03 09:55:08;;;;;;;18.02;6.18;;;3.20;84.10;;;;;;4917516;29;20048;-94
2021/12/03 09:57:43;;;;;;;14.93;6.75;;;3.20;84.10;;;;;;4917728;29;20059;-94
2021/12/03 10:03:06;;;;;;;16.83;6.47;;;3.20;84.10;;;;;;4918209;29;20100;-93
2021/12/03 10:13:32;;;;;;;14.75;6.47;;;3.30;84.10;;;;;;4918120;29;20387;-94
2021/12/03 10:16:08;;;;;;;14.77;5.75;;;3.30;84.10;;;;;;4919313;29;20055;-94
2021/12/03 10:19:26;;;;;;;10.93;5.88;;;3.40;84.10;;;;;;4921667;29;20079;-95
2021/12/03 10:36:12;;;;;;;13.25;5.10;;;3.40;84.30;;;;;;4878401;29;20530;-94
2021/12/03 10:44:17;;;;;;;11.50;4.68;;;3.50;84.40;;;;;;4867017;29;20194;-94
2021/12/03 10:47:01;;;;;;;13.93;5.00;;;3.50;84.50;;;;;;4879671;29;20060;-92
2021/12/03 11:01:04;;;;;;;8.00;4.53;;;3.60;84.80;;;;;;4899106;29;20052;-93
2021/12/03 11:39:45;;;;;;;6.68;3.00;;;3.80;85.50;;;;;;4822067;29;20065;-92
2021/12/03 11:46:33;;;;;;;6.28;2.90;;;3.90;85.60;;;;;;5111150;27;20399;-89
2021/12/03 13:11:03;;;;;;;9.43;2.30;;;4.40;86.30;;;;;;5080215;28;20448;-93
2021/12/03 14:37:57;;;;;;;4.35;2.40;;;4.50;86.40;;;;;;4933953;29;20722;-91
2021/12/03 14:56:13;;;;;;;7.10;2.40;;;4.50;86.50;;;;;;4981456;28;20042;-91
2021/12/03 15:06:46;;;;;;;3.80;2.28;;;4.60;86.50;;;;;;5044465;28;20049;-92
2021/12/03 15:25:08;;;;;;;5.18;2.90;;;4.60;86.60;;;;;;5079216;28;20052;-92
2021/12/03 15:33:26;;;;;;;4.63;2.35;;;4.60;86.60;;;;;;5032531;28;20045;-93
2021/12/03 15:35:57;;;;;;;4.35;2.30;;;4.60;86.60;;;;;;5010251;28;20129;-94
2021/12/03 15:38:43;;;;;;;5.03;2.80;;;4.60;86.60;;;;;;5028187;28;20052;-92
2021/12/03 15:55:13;;;;;;;5.38;3.42;;;4.60;86.60;;;;;;5043256;28;20056;-91
2021/12/03 16:08:30;;;;;;;5.65;3.47;;;4.60;86.60;;;;;;5055289;28;20045;-93
2021/12/03 16:19:18;;;;;;;7.45;4.97;;;4.60;86.60;;;;;;5065473;28;20127;-92
2021/12/03 16:53:49;;;;;;;10.52;8.38;;;4.60;86.70;;;;;;5059386;28;20140;-91
2021/12/03 16:56:26;;;;;;;11.45;8.63;;;4.50;86.70;;;;;;5065060;28;20078;-92
2021/12/03 16:58:55;;;;;;;8.75;7.85;;;4.60;86.70;;;;;;5060837;28;20059;-91
2021/12/03 17:01:31;;;;;;;10.77;8.75;;;4.60;86.70;;;;;;5089710;28;20052;-92
2021/12/03 17:47:23;;;;;;;12.52;11.23;;;4.60;86.80;;;;;;5089269;28;20049;-92
2021/12/03 17:58:24;;;;;;;13.95;12.45;;;4.60;86.80;;;;;;4992864;28;20054;-92
2021/12/03 18:01:01;;;;;;;13.77;12.38;;;4.60;86.80;;;;;;4985519;28;20058;-92
2021/12/03 18:03:37;;;;;;;13.85;12.18;;;4.60;86.90;;;;;;4992577;28;20146;-91
2021/12/03 18:57:32;;;;;;;17.40;15.70;;;4.80;87.10;;;;;;5071484;28;20057;-91
2021/12/03 19:00:04;;;;;;;17.13;15.13;;;4.80;87.10;;;;;;5063367;28;20045;-91
2021/12/03 19:02:33;;;;;;;17.98;16.02;;;4.80;87.10;;;;;;5057110;28;20056;-91
2021/12/03 19:05:06;;;;;;;18.38;16.38;;;4.80;87.10;;;;;;5059571;28;20063;-91
2021/12/03 19:08:19;;;;;;;17.85;15.98;;;4.80;87.10;;;;;;5075245;28;20056;-88
2021/12/03 19:10:27;;;;;;;19.08;16.27;;;4.80;87.10;;;;;;5051305;28;20513;-91
2021/12/03 19:13:01;;;;;;;20.40;17.27;;;4.80;87.10;;;;;;5076230;28;20048;-92
2021/12/03 19:15:29;;;;;;;18.83;16.20;;;4.80;87.10;;;;;;5058520;28;20098;-89
2021/12/03 19:18:00;;;;;;;19.05;17.02;;;4.80;87.10;;;;;;5070909;28;20101;-92
2021/12/03 19:20:49;;;;;;;20.42;16.77;;;4.80;87.10;;;;;;5075930;28;20501;-92
2021/12/03 19:23:16;;;;;;;19.33;17.25;;;4.80;87.10;;;;;;5057512;28;20052;-91
2021/12/03 19:25:48;;;;;;;20.52;18.10;;;4.90;87.10;;;;;;5057983;28;20084;-91
2021/12/03 19:28:19;;;;;;;20.00;17.95;;;4.90;87.10;;;;;;5075115;28;20394;-91
2021/12/03 19:30:46;;;;;;;20.15;17.90;;;4.90;87.10;;;;;;5076388;28;20048;-91
2021/12/03 19:33:13;;;;;;;21.15;18.52;;;4.90;87.10;;;;;;5082797;28;20051;-90
2021/12/03 19:35:40;;;;;;;20.13;17.95;;;4.90;87.10;;;;;;5096432;28;20048;-91
2021/12/03 19:38:09;;;;;;;21.45;19.15;;;4.90;87.10;;;;;;5095181;28;20040;-92
2021/12/03 19:40:39;;;;;;;21.13;18.85;;;4.90;87.10;;;;;;5093865;28;20064;-91
2021/12/03 19:43:14;;;;;;;21.20;18.92;;;4.90;87.10;;;;;;5077314;28;20079;-92
2021/12/03 19:45:54;;;;;;;22.00;18.55;;;4.90;87.10;;;;;;5091971;28;20049;-91
2021/12/03 19:48:33;;;;;;;20.13;17.85;;;4.90;87.10;;;;;;5095297;28;20052;-90
2021/12/03 19:51:00;;;;;;;20.83;18.25;;;4.90;87.10;;;;;;5090218;28;20048;-90
2021/12/03 19:53:29;;;;;;;20.33;18.08;;;4.90;87.10;;;;;;5087986;28;20053;-90
2021/12/03 19:55:56;;;;;;;20.60;18.30;;;4.90;87.10;;;;;;5072691;28;20053;-91
2021/12/03 19:58:22;;;;;;;22.80;20.27;;;4.90;87.10;;;;;;5055860;28;20045;-90
2021/12/03 20:00:50;;;;;;;21.33;19.02;;;4.90;87.10;;;;;;5088351;28;20052;-92
2021/12/03 20:03:18;;;;;;;20.77;18.58;;;4.90;87.10;;;;;;5092047;28;20485;-91
2021/12/03 20:05:45;;;;;;;21.13;18.63;;;4.90;87.10;;;;;;5092822;28;20053;-90
2021/12/03 20:08:11;;;;;;;21.08;18.88;;;4.90;87.10;;;;;;5096179;28;20052;-92
2021/12/03 20:10:40;;;;;;;21.40;18.52;;;4.90;87.10;;;;;;5081705;28;20048;-92
2021/12/03 20:13:09;;;;;;;20.50;18.35;;;4.90;87.10;;;;;;5094302;28;20048;-92
2021/12/03 20:18:44;;;;;;;19.25;17.20;;;4.90;87.10;;;;;;5046544;28;20060;-90
2021/12/03 20:21:12;;;;;;;17.83;15.88;;;5.00;87.10;;;;;;5060699;28;20104;-92
2021/12/03 20:26:31;;;;;;;18.67;16.05;;;4.90;87.10;;;;;;5100527;28;20051;-92
2021/12/03 20:29:12;;;;;;;17.63;15.68;;;5.00;87.10;;;;;;5099009;28;20444;-91
2021/12/03 20:31:44;;;;;;;16.88;15.07;;;5.00;87.10;;;;;;5079941;28;20082;-93
2021/12/03 20:34:27;;;;;;;17.77;15.88;;;5.00;87.10;;;;;;5093359;28;20059;-92
2021/12/03 20:36:59;;;;;;;17.83;15.93;;;5.00;87.10;;;;;;5100178;28;20055;-92
2021/12/03 20:39:33;;;;;;;17.45;15.65;;;5.00;87.10;;;;;;5088454;28;20052;-91
2021/12/03 20:47:48;;;;;;;17.98;15.82;;;5.00;87.10;;;;;;5062662;28;20056;-92
2021/12/03 20:53:18;;;;;;;17.58;15.13;;;5.00;87.10;;;;;;5062741;28;20060;-92
2021/12/03 21:09:38;;;;;;;15.55;13.82;;;5.10;87.10;;;;;;5062617;28;20223;-92
2021/12/03 21:15:06;;;;;;;16.50;13.70;;;5.10;87.10;;;;;;5092351;28;20052;-91